sensor_id;sensor_type;location;lat;lon;timestamp;P1;durP1;ratioP1;P2;durP2;ratioP2
22138;SDS011;25815;52.582;13.408;2022-08-02T00:00:13;3.03;;;1.38;;
22138;SDS011;25815;52.582;13.408;2022-08-02T00:02:40;5.88;;;1.75;;
22138;SDS011;25815;52.582;13.408;2022-08-02T00:05:06;3.95;;;1.40;;
22138;SDS011;25815;52.582;13.408;2022-08-02T00:07:33;3.90;;;1.98;;
22138;SDS011;25815;52.582;13.408;2022-08-02T00:09:59;3.53;;;1.50;;
22138;SDS011;25815;52.582;13.408;2022-08-02T00:12:24;4.70;;;1.80;;
22138;SDS011;25815;52.582;13.408;2022-08-02T00:14:50;2.45;;;1.58;;
22138;SDS011;25815;52.582;13.408;2022-08-02T00:17:16;2.85;;;1.80;;
22138;SDS011;25815;52.582;13.408;2022-08-02T00:19:42;3.45;;;1.73;;
22138;SDS011;25815;52.582;13.408;2022-08-02T00:22:08;5.88;;;1.60;;
22138;SDS011;25815;52.582;13.408;2022-08-02T00:24:34;5.30;;;1.73;;
22138;SDS011;25815;52.582;13.408;2022-08-02T00:27:00;3.55;;;1.77;;
22138;SDS011;25815;52.582;13.408;2022-08-02T00:29:32;4.93;;;1.80;;
22138;SDS011;25815;52.582;13.408;2022-08-02T00:31:58;3.30;;;1.73;;
22138;SDS011;25815;52.582;13.408;2022-08-02T00:34:24;4.43;;;1.80;;
22138;SDS011;25815;52.582;13.408;2022-08-02T00:36:50;2.00;;;1.55;;
22138;SDS011;25815;52.582;13.408;2022-08-02T00:39:16;5.28;;;1.90;;
22138;SDS011;25815;52.582;13.408;2022-08-02T00:41:48;4.63;;;1.73;;
22138;SDS011;25815;52.582;13.408;2022-08-02T00:44:15;3.28;;;1.60;;
22138;SDS011;25815;52.582;13.408;2022-08-02T00:46:42;3.13;;;1.60;;
22138;SDS011;25815;52.582;13.408;2022-08-02T00:49:08;2.80;;;1.40;;
22138;SDS011;25815;52.582;13.408;2022-08-02T00:51:34;4.72;;;1.90;;
22138;SDS011;25815;52.582;13.408;2022-08-02T00:54:00;4.70;;;1.60;;
22138;SDS011;25815;52.582;13.408;2022-08-02T00:56:27;6.93;;;2.00;;
22138;SDS011;25815;52.582;13.408;2022-08-02T00:58:53;4.78;;;1.90;;
22138;SDS011;25815;52.582;13.408;2022-08-02T01:01:19;4.63;;;1.63;;
22138;SDS011;25815;52.582;13.408;2022-08-02T01:03:44;3.35;;;1.58;;
22138;SDS011;25815;52.582;13.408;2022-08-02T01:06:10;3.50;;;2.05;;
22138;SDS011;25815;52.582;13.408;2022-08-02T01:08:37;2.25;;;1.83;;
22138;SDS011;25815;52.582;13.408;2022-08-02T01:11:03;2.53;;;1.48;;
22138;SDS011;25815;52.582;13.408;2022-08-02T01:13:29;5.00;;;1.70;;
22138;SDS011;25815;52.582;13.408;2022-08-02T01:16:07;3.05;;;1.40;;
22138;SDS011;25815;52.582;13.408;2022-08-02T01:18:40;4.68;;;1.65;;
22138;SDS011;25815;52.582;13.408;2022-08-02T01:21:31;4.05;;;1.75;;
22138;SDS011;25815;52.582;13.408;2022-08-02T01:24:00;3.45;;;1.60;;
22138;SDS011;25815;52.582;13.408;2022-08-02T01:26:31;3.15;;;1.63;;
22138;SDS011;25815;52.582;13.408;2022-08-02T01:29:01;2.95;;;1.35;;
22138;SDS011;25815;52.582;13.408;2022-08-02T01:31:29;4.82;;;1.65;;
22138;SDS011;25815;52.582;13.408;2022-08-02T01:34:03;7.10;;;2.07;;
22138;SDS011;25815;52.582;13.408;2022-08-02T01:36:38;6.38;;;1.95;;
22138;SDS011;25815;52.582;13.408;2022-08-02T01:39:05;6.82;;;1.80;;
22138;SDS011;25815;52.582;13.408;2022-08-02T01:41:34;6.18;;;1.80;;
22138;SDS011;25815;52.582;13.408;2022-08-02T01:44:00;3.75;;;1.65;;
22138;SDS011;25815;52.582;13.408;2022-08-02T01:46:28;4.30;;;1.77;;
22138;SDS011;25815;52.582;13.408;2022-08-02T01:48:55;8.05;;;1.98;;
22138;SDS011;25815;52.582;13.408;2022-08-02T01:51:22;2.47;;;1.35;;
22138;SDS011;25815;52.582;13.408;2022-08-02T01:54:11;5.53;;;1.80;;
22138;SDS011;25815;52.582;13.408;2022-08-02T01:56:39;5.78;;;1.55;;
22138;SDS011;25815;52.582;13.408;2022-08-02T01:59:06;5.95;;;1.80;;
22138;SDS011;25815;52.582;13.408;2022-08-02T02:01:34;6.72;;;2.00;;
22138;SDS011;25815;52.582;13.408;2022-08-02T02:04:01;6.38;;;1.75;;
22138;SDS011;25815;52.582;13.408;2022-08-02T02:06:27;6.03;;;1.90;;
22138;SDS011;25815;52.582;13.408;2022-08-02T02:08:53;7.75;;;1.90;;
22138;SDS011;25815;52.582;13.408;2022-08-02T02:11:20;5.85;;;1.75;;
22138;SDS011;25815;52.582;13.408;2022-08-02T02:13:46;5.53;;;1.60;;
22138;SDS011;25815;52.582;13.408;2022-08-02T02:16:12;5.18;;;2.03;;
22138;SDS011;25815;52.582;13.408;2022-08-02T02:18:39;5.13;;;1.90;;
22138;SDS011;25815;52.582;13.408;2022-08-02T02:21:07;6.35;;;2.42;;
22138;SDS011;25815;52.582;13.408;2022-08-02T02:23:34;5.30;;;1.85;;
22138;SDS011;25815;52.582;13.408;2022-08-02T02:26:01;5.13;;;1.73;;
22138;SDS011;25815;52.582;13.408;2022-08-02T02:28:28;5.55;;;2.10;;
22138;SDS011;25815;52.582;13.408;2022-08-02T02:31:05;6.10;;;1.90;;
22138;SDS011;25815;52.582;13.408;2022-08-02T02:33:34;4.40;;;1.90;;
22138;SDS011;25815;52.582;13.408;2022-08-02T02:36:01;5.60;;;2.05;;
22138;SDS011;25815;52.582;13.408;2022-08-02T02:38:29;4.50;;;1.90;;
22138;SDS011;25815;52.582;13.408;2022-08-02T02:40:55;6.25;;;1.88;;
22138;SDS011;25815;52.582;13.408;2022-08-02T02:43:23;5.57;;;1.70;;
22138;SDS011;25815;52.582;13.408;2022-08-02T02:45:50;3.92;;;1.70;;
22138;SDS011;25815;52.582;13.408;2022-08-02T02:48:17;5.28;;;2.17;;
22138;SDS011;25815;52.582;13.408;2022-08-02T02:50:44;4.00;;;1.98;;
22138;SDS011;25815;52.582;13.408;2022-08-02T02:53:10;6.38;;;2.30;;
22138;SDS011;25815;52.582;13.408;2022-08-02T02:55:37;5.43;;;2.08;;
22138;SDS011;25815;52.582;13.408;2022-08-02T02:58:03;3.75;;;2.00;;
22138;SDS011;25815;52.582;13.408;2022-08-02T03:00:29;6.20;;;2.05;;
22138;SDS011;25815;52.582;13.408;2022-08-02T03:03:14;6.70;;;2.10;;
22138;SDS011;25815;52.582;13.408;2022-08-02T03:05:41;5.30;;;1.77;;
22138;SDS011;25815;52.582;13.408;2022-08-02T03:08:07;5.18;;;1.92;;
22138;SDS011;25815;52.582;13.408;2022-08-02T03:10:33;4.78;;;2.22;;
22138;SDS011;25815;52.582;13.408;2022-08-02T03:12:59;7.43;;;1.85;;
22138;SDS011;25815;52.582;13.408;2022-08-02T03:15:26;3.80;;;1.90;;
22138;SDS011;25815;52.582;13.408;2022-08-02T03:17:52;7.15;;;1.83;;
22138;SDS011;25815;52.582;13.408;2022-08-02T03:20:18;6.00;;;1.90;;
22138;SDS011;25815;52.582;13.408;2022-08-02T03:22:46;5.07;;;1.80;;
22138;SDS011;25815;52.582;13.408;2022-08-02T03:25:13;7.88;;;2.25;;
22138;SDS011;25815;52.582;13.408;2022-08-02T03:27:40;6.55;;;2.35;;
22138;SDS011;25815;52.582;13.408;2022-08-02T03:30:07;3.67;;;2.08;;
22138;SDS011;25815;52.582;13.408;2022-08-02T03:32:33;8.57;;;2.30;;
22138;SDS011;25815;52.582;13.408;2022-08-02T03:35:00;3.83;;;1.90;;
22138;SDS011;25815;52.582;13.408;2022-08-02T03:37:26;6.32;;;2.50;;
22138;SDS011;25815;52.582;13.408;2022-08-02T03:39:52;6.30;;;2.40;;
22138;SDS011;25815;52.582;13.408;2022-08-02T03:42:20;4.35;;;1.92;;
22138;SDS011;25815;52.582;13.408;2022-08-02T03:44:46;5.22;;;2.17;;
22138;SDS011;25815;52.582;13.408;2022-08-02T03:47:12;7.03;;;2.28;;
22138;SDS011;25815;52.582;13.408;2022-08-02T03:49:39;7.35;;;2.22;;
22138;SDS011;25815;52.582;13.408;2022-08-02T03:52:05;4.72;;;2.40;;
22138;SDS011;25815;52.582;13.408;2022-08-02T03:54:32;6.00;;;2.50;;
22138;SDS011;25815;52.582;13.408;2022-08-02T03:56:58;5.60;;;2.22;;
22138;SDS011;25815;52.582;13.408;2022-08-02T03:59:24;6.22;;;2.30;;
22138;SDS011;25815;52.582;13.408;2022-08-02T04:01:49;5.47;;;2.25;;
22138;SDS011;25815;52.582;13.408;2022-08-02T04:04:15;4.95;;;1.90;;
22138;SDS011;25815;52.582;13.408;2022-08-02T04:06:41;5.43;;;2.05;;
22138;SDS011;25815;52.582;13.408;2022-08-02T04:09:08;8.45;;;2.28;;
22138;SDS011;25815;52.582;13.408;2022-08-02T04:11:34;6.22;;;2.30;;
22138;SDS011;25815;52.582;13.408;2022-08-02T04:14:06;8.27;;;2.40;;
22138;SDS011;25815;52.582;13.408;2022-08-02T04:19:02;4.28;;;2.22;;
22138;SDS011;25815;52.582;13.408;2022-08-02T04:21:30;5.35;;;2.00;;
22138;SDS011;25815;52.582;13.408;2022-08-02T04:23:57;6.93;;;2.28;;
22138;SDS011;25815;52.582;13.408;2022-08-02T04:26:23;5.00;;;2.05;;
22138;SDS011;25815;52.582;13.408;2022-08-02T04:28:50;6.82;;;2.25;;
22138;SDS011;25815;52.582;13.408;2022-08-02T04:31:16;8.98;;;2.55;;
22138;SDS011;25815;52.582;13.408;2022-08-02T04:33:43;5.50;;;2.15;;
22138;SDS011;25815;52.582;13.408;2022-08-02T04:36:09;3.50;;;2.05;;
22138;SDS011;25815;52.582;13.408;2022-08-02T04:38:38;6.70;;;2.10;;
22138;SDS011;25815;52.582;13.408;2022-08-02T04:41:04;9.65;;;2.67;;
22138;SDS011;25815;52.582;13.408;2022-08-02T04:43:29;5.65;;;2.17;;
22138;SDS011;25815;52.582;13.408;2022-08-02T04:45:56;5.90;;;2.55;;
22138;SDS011;25815;52.582;13.408;2022-08-02T04:48:22;6.55;;;2.50;;
22138;SDS011;25815;52.582;13.408;2022-08-02T04:50:48;4.65;;;2.17;;
22138;SDS011;25815;52.582;13.408;2022-08-02T04:53:14;5.18;;;2.28;;
22138;SDS011;25815;52.582;13.408;2022-08-02T04:55:40;6.13;;;2.78;;
22138;SDS011;25815;52.582;13.408;2022-08-02T04:58:06;6.72;;;3.00;;
22138;SDS011;25815;52.582;13.408;2022-08-02T05:00:32;6.43;;;2.70;;
22138;SDS011;25815;52.582;13.408;2022-08-02T05:02:59;4.45;;;2.25;;
22138;SDS011;25815;52.582;13.408;2022-08-02T05:05:25;7.63;;;2.38;;
22138;SDS011;25815;52.582;13.408;2022-08-02T05:07:52;4.55;;;2.70;;
22138;SDS011;25815;52.582;13.408;2022-08-02T05:10:18;5.15;;;2.22;;
22138;SDS011;25815;52.582;13.408;2022-08-02T05:12:44;8.77;;;3.40;;
22138;SDS011;25815;52.582;13.408;2022-08-02T05:15:11;8.77;;;2.83;;
22138;SDS011;25815;52.582;13.408;2022-08-02T05:17:37;9.13;;;3.10;;
22138;SDS011;25815;52.582;13.408;2022-08-02T05:20:03;6.35;;;2.70;;
22138;SDS011;25815;52.582;13.408;2022-08-02T05:22:30;10.02;;;3.20;;
22138;SDS011;25815;52.582;13.408;2022-08-02T05:24:56;10.00;;;3.30;;
22138;SDS011;25815;52.582;13.408;2022-08-02T05:27:21;8.13;;;3.22;;
22138;SDS011;25815;52.582;13.408;2022-08-02T05:29:48;7.97;;;2.40;;
22138;SDS011;25815;52.582;13.408;2022-08-02T05:32:15;7.30;;;2.85;;
22138;SDS011;25815;52.582;13.408;2022-08-02T05:34:41;7.82;;;2.88;;
22138;SDS011;25815;52.582;13.408;2022-08-02T05:37:07;9.70;;;3.42;;
22138;SDS011;25815;52.582;13.408;2022-08-02T05:39:33;8.40;;;3.40;;
22138;SDS011;25815;52.582;13.408;2022-08-02T05:41:59;9.38;;;4.18;;
22138;SDS011;25815;52.582;13.408;2022-08-02T05:44:25;11.73;;;5.38;;
22138;SDS011;25815;52.582;13.408;2022-08-02T05:46:51;13.82;;;5.30;;
22138;SDS011;25815;52.582;13.408;2022-08-02T05:49:17;15.23;;;4.90;;
22138;SDS011;25815;52.582;13.408;2022-08-02T05:51:45;15.07;;;5.68;;
22138;SDS011;25815;52.582;13.408;2022-08-02T05:54:19;16.60;;;6.25;;
22138;SDS011;25815;52.582;13.408;2022-08-02T05:57:00;13.90;;;5.70;;
22138;SDS011;25815;52.582;13.408;2022-08-02T05:59:39;19.52;;;6.63;;
22138;SDS011;25815;52.582;13.408;2022-08-02T06:02:28;14.18;;;5.72;;
22138;SDS011;25815;52.582;13.408;2022-08-02T06:05:05;11.35;;;4.90;;
22138;SDS011;25815;52.582;13.408;2022-08-02T06:07:34;11.52;;;4.32;;
22138;SDS011;25815;52.582;13.408;2022-08-02T06:10:00;13.43;;;4.65;;
22138;SDS011;25815;52.582;13.408;2022-08-02T06:12:28;10.88;;;3.78;;
22138;SDS011;25815;52.582;13.408;2022-08-02T06:14:54;11.00;;;3.28;;
22138;SDS011;25815;52.582;13.408;2022-08-02T06:17:20;9.73;;;3.20;;
22138;SDS011;25815;52.582;13.408;2022-08-02T06:19:46;10.52;;;3.50;;
22138;SDS011;25815;52.582;13.408;2022-08-02T06:22:13;10.50;;;3.90;;
22138;SDS011;25815;52.582;13.408;2022-08-02T06:24:41;11.30;;;3.50;;
22138;SDS011;25815;52.582;13.408;2022-08-02T06:27:07;9.30;;;3.80;;
22138;SDS011;25815;52.582;13.408;2022-08-02T06:29:33;9.50;;;3.78;;
22138;SDS011;25815;52.582;13.408;2022-08-02T06:32:00;9.60;;;3.05;;
22138;SDS011;25815;52.582;13.408;2022-08-02T06:34:26;8.95;;;2.85;;
22138;SDS011;25815;52.582;13.408;2022-08-02T06:37:01;6.55;;;2.53;;
22138;SDS011;25815;52.582;13.408;2022-08-02T06:39:35;7.65;;;2.53;;
22138;SDS011;25815;52.582;13.408;2022-08-02T06:42:06;9.07;;;2.80;;
22138;SDS011;25815;52.582;13.408;2022-08-02T06:44:36;7.20;;;2.78;;
22138;SDS011;25815;52.582;13.408;2022-08-02T06:47:02;9.88;;;2.45;;
22138;SDS011;25815;52.582;13.408;2022-08-02T06:49:28;5.32;;;2.08;;
22138;SDS011;25815;52.582;13.408;2022-08-02T06:51:54;10.15;;;2.03;;
22138;SDS011;25815;52.582;13.408;2022-08-02T06:54:20;5.32;;;1.65;;
22138;SDS011;25815;52.582;13.408;2022-08-02T06:56:46;6.70;;;1.60;;
22138;SDS011;25815;52.582;13.408;2022-08-02T06:59:12;9.10;;;1.48;;
22138;SDS011;25815;52.582;13.408;2022-08-02T07:01:38;8.50;;;1.60;;
22138;SDS011;25815;52.582;13.408;2022-08-02T07:04:04;5.95;;;1.45;;
22138;SDS011;25815;52.582;13.408;2022-08-02T07:06:30;4.90;;;1.42;;
22138;SDS011;25815;52.582;13.408;2022-08-02T07:08:56;5.78;;;1.52;;
22138;SDS011;25815;52.582;13.408;2022-08-02T07:11:22;9.20;;;1.63;;
22138;SDS011;25815;52.582;13.408;2022-08-02T07:13:48;4.70;;;1.17;;
22138;SDS011;25815;52.582;13.408;2022-08-02T07:16:14;7.20;;;1.35;;
22138;SDS011;25815;52.582;13.408;2022-08-02T07:18:40;7.22;;;1.45;;
22138;SDS011;25815;52.582;13.408;2022-08-02T07:21:05;8.07;;;1.30;;
22138;SDS011;25815;52.582;13.408;2022-08-02T07:23:31;8.55;;;1.83;;
22138;SDS011;25815;52.582;13.408;2022-08-02T07:25:58;7.70;;;1.70;;
22138;SDS011;25815;52.582;13.408;2022-08-02T07:28:24;5.53;;;1.52;;
22138;SDS011;25815;52.582;13.408;2022-08-02T07:30:50;5.22;;;1.15;;
22138;SDS011;25815;52.582;13.408;2022-08-02T07:33:16;7.93;;;1.40;;
22138;SDS011;25815;52.582;13.408;2022-08-02T07:35:42;4.55;;;1.23;;
22138;SDS011;25815;52.582;13.408;2022-08-02T07:38:08;3.97;;;1.42;;
22138;SDS011;25815;52.582;13.408;2022-08-02T07:40:34;5.30;;;1.50;;
22138;SDS011;25815;52.582;13.408;2022-08-02T07:43:00;6.30;;;1.70;;
22138;SDS011;25815;52.582;13.408;2022-08-02T07:45:26;3.97;;;1.35;;
22138;SDS011;25815;52.582;13.408;2022-08-02T07:47:52;6.60;;;1.75;;
22138;SDS011;25815;52.582;13.408;2022-08-02T07:50:19;5.20;;;1.65;;
22138;SDS011;25815;52.582;13.408;2022-08-02T07:52:45;5.50;;;1.63;;
22138;SDS011;25815;52.582;13.408;2022-08-02T07:55:12;5.22;;;1.42;;
22138;SDS011;25815;52.582;13.408;2022-08-02T07:57:38;4.95;;;1.58;;
22138;SDS011;25815;52.582;13.408;2022-08-02T08:00:05;7.88;;;1.73;;
22138;SDS011;25815;52.582;13.408;2022-08-02T08:02:32;8.38;;;1.67;;
22138;SDS011;25815;52.582;13.408;2022-08-02T08:04:58;4.47;;;1.40;;
22138;SDS011;25815;52.582;13.408;2022-08-02T08:07:23;6.82;;;1.60;;
22138;SDS011;25815;52.582;13.408;2022-08-02T08:09:50;6.38;;;1.60;;
22138;SDS011;25815;52.582;13.408;2022-08-02T08:12:16;4.82;;;1.38;;
22138;SDS011;25815;52.582;13.408;2022-08-02T08:14:42;7.30;;;1.63;;
22138;SDS011;25815;52.582;13.408;2022-08-02T08:17:08;5.43;;;1.33;;
22138;SDS011;25815;52.582;13.408;2022-08-02T08:19:34;6.10;;;1.52;;
22138;SDS011;25815;52.582;13.408;2022-08-02T08:22:00;3.53;;;1.30;;
22138;SDS011;25815;52.582;13.408;2022-08-02T08:24:27;7.80;;;1.63;;
22138;SDS011;25815;52.582;13.408;2022-08-02T08:26:53;5.63;;;1.40;;
22138;SDS011;25815;52.582;13.408;2022-08-02T08:29:19;2.75;;;0.90;;
22138;SDS011;25815;52.582;13.408;2022-08-02T08:31:45;5.40;;;1.25;;
22138;SDS011;25815;52.582;13.408;2022-08-02T08:34:11;6.15;;;1.60;;
22138;SDS011;25815;52.582;13.408;2022-08-02T08:36:37;6.97;;;1.42;;
22138;SDS011;25815;52.582;13.408;2022-08-02T08:39:04;2.80;;;1.00;;
22138;SDS011;25815;52.582;13.408;2022-08-02T08:41:29;5.07;;;1.40;;
22138;SDS011;25815;52.582;13.408;2022-08-02T08:43:56;3.75;;;1.20;;
22138;SDS011;25815;52.582;13.408;2022-08-02T08:46:30;5.35;;;1.30;;
22138;SDS011;25815;52.582;13.408;2022-08-02T08:48:58;3.70;;;1.13;;
22138;SDS011;25815;52.582;13.408;2022-08-02T08:51:24;4.63;;;1.25;;
22138;SDS011;25815;52.582;13.408;2022-08-02T08:53:51;3.95;;;1.33;;
22138;SDS011;25815;52.582;13.408;2022-08-02T08:56:18;6.85;;;1.42;;
22138;SDS011;25815;52.582;13.408;2022-08-02T08:58:45;6.00;;;1.30;;
22138;SDS011;25815;52.582;13.408;2022-08-02T09:01:11;5.15;;;1.23;;
22138;SDS011;25815;52.582;13.408;2022-08-02T09:03:39;6.13;;;1.38;;
22138;SDS011;25815;52.582;13.408;2022-08-02T09:06:05;2.38;;;0.93;;
22138;SDS011;25815;52.582;13.408;2022-08-02T09:08:31;5.43;;;1.10;;
22138;SDS011;25815;52.582;13.408;2022-08-02T09:10:57;4.50;;;1.40;;
22138;SDS011;25815;52.582;13.408;2022-08-02T09:13:26;3.35;;;1.42;;
22138;SDS011;25815;52.582;13.408;2022-08-02T09:18:31;5.60;;;1.30;;
22138;SDS011;25815;52.582;13.408;2022-08-02T09:20:59;6.47;;;1.50;;
22138;SDS011;25815;52.582;13.408;2022-08-02T09:23:26;5.38;;;1.10;;
22138;SDS011;25815;52.582;13.408;2022-08-02T09:26:00;3.42;;;1.17;;
22138;SDS011;25815;52.582;13.408;2022-08-02T09:28:27;4.47;;;1.65;;
22138;SDS011;25815;52.582;13.408;2022-08-02T09:30:55;2.47;;;1.23;;
22138;SDS011;25815;52.582;13.408;2022-08-02T09:33:27;7.20;;;1.30;;
22138;SDS011;25815;52.582;13.408;2022-08-02T09:35:59;3.28;;;1.30;;
22138;SDS011;25815;52.582;13.408;2022-08-02T09:38:26;6.15;;;1.70;;
22138;SDS011;25815;52.582;13.408;2022-08-02T09:40:52;2.97;;;1.25;;
22138;SDS011;25815;52.582;13.408;2022-08-02T09:43:18;12.52;;;6.53;;
22138;SDS011;25815;52.582;13.408;2022-08-02T09:45:44;4.68;;;1.63;;
22138;SDS011;25815;52.582;13.408;2022-08-02T09:48:11;5.43;;;1.00;;
22138;SDS011;25815;52.582;13.408;2022-08-02T09:50:37;7.78;;;3.45;;
22138;SDS011;25815;52.582;13.408;2022-08-02T09:53:04;7.13;;;1.40;;
22138;SDS011;25815;52.582;13.408;2022-08-02T09:55:30;7.88;;;1.20;;
22138;SDS011;25815;52.582;13.408;2022-08-02T09:57:56;4.50;;;1.35;;
22138;SDS011;25815;52.582;13.408;2022-08-02T10:00:22;5.95;;;1.33;;
22138;SDS011;25815;52.582;13.408;2022-08-02T10:05:49;6.32;;;1.20;;
22138;SDS011;25815;52.582;13.408;2022-08-02T10:08:15;6.82;;;1.40;;
22138;SDS011;25815;52.582;13.408;2022-08-02T10:10:41;6.07;;;1.10;;
22138;SDS011;25815;52.582;13.408;2022-08-02T10:13:08;2.45;;;0.90;;
22138;SDS011;25815;52.582;13.408;2022-08-02T10:15:34;3.30;;;1.10;;
22138;SDS011;25815;52.582;13.408;2022-08-02T10:18:00;6.70;;;1.50;;
22138;SDS011;25815;52.582;13.408;2022-08-02T10:20:27;4.65;;;1.20;;
22138;SDS011;25815;52.582;13.408;2022-08-02T10:22:53;3.83;;;1.10;;
22138;SDS011;25815;52.582;13.408;2022-08-02T10:25:21;4.55;;;1.10;;
22138;SDS011;25815;52.582;13.408;2022-08-02T10:27:47;2.95;;;1.00;;
22138;SDS011;25815;52.582;13.408;2022-08-02T10:30:14;3.40;;;1.15;;
22138;SDS011;25815;52.582;13.408;2022-08-02T10:32:42;5.25;;;1.20;;
22138;SDS011;25815;52.582;13.408;2022-08-02T10:35:10;4.47;;;1.35;;
22138;SDS011;25815;52.582;13.408;2022-08-02T10:37:37;6.10;;;1.20;;
22138;SDS011;25815;52.582;13.408;2022-08-02T10:40:04;5.70;;;1.30;;
22138;SDS011;25815;52.582;13.408;2022-08-02T10:42:46;4.65;;;1.13;;
22138;SDS011;25815;52.582;13.408;2022-08-02T10:45:13;4.05;;;1.52;;
22138;SDS011;25815;52.582;13.408;2022-08-02T10:47:55;3.50;;;1.30;;
22138;SDS011;25815;52.582;13.408;2022-08-02T10:50:39;3.25;;;0.93;;
22138;SDS011;25815;52.582;13.408;2022-08-02T10:53:56;3.38;;;1.25;;
22138;SDS011;25815;52.582;13.408;2022-08-02T10:55:57;4.40;;;1.30;;
22138;SDS011;25815;52.582;13.408;2022-08-02T10:58:24;1.45;;;1.00;;
22138;SDS011;25815;52.582;13.408;2022-08-02T11:00:52;3.67;;;1.15;;
22138;SDS011;25815;52.582;13.408;2022-08-02T11:06:00;5.57;;;1.20;;
22138;SDS011;25815;52.582;13.408;2022-08-02T11:08:26;4.82;;;1.08;;
22138;SDS011;25815;52.582;13.408;2022-08-02T11:10:56;5.88;;;1.15;;
22138;SDS011;25815;52.582;13.408;2022-08-02T11:13:23;3.55;;;1.20;;
22138;SDS011;25815;52.582;13.408;2022-08-02T11:15:57;3.20;;;1.10;;
22138;SDS011;25815;52.582;13.408;2022-08-02T11:21:22;4.90;;;1.00;;
22138;SDS011;25815;52.582;13.408;2022-08-02T11:23:49;2.35;;;0.80;;
22138;SDS011;25815;52.582;13.408;2022-08-02T11:28:53;3.35;;;0.98;;
22138;SDS011;25815;52.582;13.408;2022-08-02T11:31:19;3.70;;;1.10;;
22138;SDS011;25815;52.582;13.408;2022-08-02T11:33:47;6.25;;;1.15;;
22138;SDS011;25815;52.582;13.408;2022-08-02T11:36:13;3.15;;;1.00;;
22138;SDS011;25815;52.582;13.408;2022-08-02T11:38:39;5.07;;;1.10;;
22138;SDS011;25815;52.582;13.408;2022-08-02T11:41:05;3.53;;;0.85;;
22138;SDS011;25815;52.582;13.408;2022-08-02T11:43:31;2.17;;;0.90;;
22138;SDS011;25815;52.582;13.408;2022-08-02T11:46:00;4.75;;;1.00;;
22138;SDS011;25815;52.582;13.408;2022-08-02T11:51:02;3.45;;;1.00;;
22138;SDS011;25815;52.582;13.408;2022-08-02T11:53:28;3.67;;;1.13;;
22138;SDS011;25815;52.582;13.408;2022-08-02T11:55:58;3.63;;;1.25;;
22138;SDS011;25815;52.582;13.408;2022-08-02T11:58:24;3.70;;;1.02;;
22138;SDS011;25815;52.582;13.408;2022-08-02T12:00:52;5.10;;;1.27;;
22138;SDS011;25815;52.582;13.408;2022-08-02T12:03:18;5.85;;;1.08;;
22138;SDS011;25815;52.582;13.408;2022-08-02T12:05:47;5.57;;;1.15;;
22138;SDS011;25815;52.582;13.408;2022-08-02T12:08:13;3.88;;;1.13;;
22138;SDS011;25815;52.582;13.408;2022-08-02T12:10:46;5.88;;;1.08;;
22138;SDS011;25815;52.582;13.408;2022-08-02T12:13:12;2.15;;;0.90;;
22138;SDS011;25815;52.582;13.408;2022-08-02T12:15:39;4.63;;;1.02;;
22138;SDS011;25815;52.582;13.408;2022-08-02T12:18:09;1.92;;;0.90;;
22138;SDS011;25815;52.582;13.408;2022-08-02T12:20:54;3.50;;;1.00;;
22138;SDS011;25815;52.582;13.408;2022-08-02T12:23:20;3.20;;;1.10;;
22138;SDS011;25815;52.582;13.408;2022-08-02T12:25:58;2.58;;;0.70;;
22138;SDS011;25815;52.582;13.408;2022-08-02T12:28:23;1.70;;;0.85;;
22138;SDS011;25815;52.582;13.408;2022-08-02T12:35:42;2.63;;;0.95;;
22138;SDS011;25815;52.582;13.408;2022-08-02T12:38:09;3.72;;;1.08;;
22138;SDS011;25815;52.582;13.408;2022-08-02T12:40:35;3.38;;;0.98;;
22138;SDS011;25815;52.582;13.408;2022-08-02T12:43:02;2.83;;;1.00;;
22138;SDS011;25815;52.582;13.408;2022-08-02T12:45:30;3.80;;;1.05;;
22138;SDS011;25815;52.582;13.408;2022-08-02T12:47:57;7.53;;;1.20;;
22138;SDS011;25815;52.582;13.408;2022-08-02T12:50:24;4.65;;;0.95;;
22138;SDS011;25815;52.582;13.408;2022-08-02T12:53:01;2.25;;;0.93;;
22138;SDS011;25815;52.582;13.408;2022-08-02T12:55:27;2.92;;;1.30;;
22138;SDS011;25815;52.582;13.408;2022-08-02T12:58:02;2.78;;;1.00;;
22138;SDS011;25815;52.582;13.408;2022-08-02T13:00:30;4.00;;;1.33;;
22138;SDS011;25815;52.582;13.408;2022-08-02T13:02:56;3.35;;;1.05;;
22138;SDS011;25815;52.582;13.408;2022-08-02T13:05:22;1.90;;;0.95;;
22138;SDS011;25815;52.582;13.408;2022-08-02T13:07:49;4.10;;;0.90;;
22138;SDS011;25815;52.582;13.408;2022-08-02T13:10:15;5.95;;;1.10;;
22138;SDS011;25815;52.582;13.408;2022-08-02T13:12:41;2.08;;;0.90;;
22138;SDS011;25815;52.582;13.408;2022-08-02T13:15:07;6.10;;;1.23;;
22138;SDS011;25815;52.582;13.408;2022-08-02T13:17:33;2.13;;;0.95;;
22138;SDS011;25815;52.582;13.408;2022-08-02T13:19:59;2.83;;;1.00;;
22138;SDS011;25815;52.582;13.408;2022-08-02T13:22:25;4.43;;;1.00;;
22138;SDS011;25815;52.582;13.408;2022-08-02T13:24:51;3.22;;;0.90;;
22138;SDS011;25815;52.582;13.408;2022-08-02T13:27:17;4.25;;;0.80;;
22138;SDS011;25815;52.582;13.408;2022-08-02T13:29:43;3.60;;;1.20;;
22138;SDS011;25815;52.582;13.408;2022-08-02T13:32:09;3.70;;;0.93;;
22138;SDS011;25815;52.582;13.408;2022-08-02T13:34:35;2.33;;;0.73;;
22138;SDS011;25815;52.582;13.408;2022-08-02T13:37:01;4.03;;;0.90;;
22138;SDS011;25815;52.582;13.408;2022-08-02T13:39:28;2.97;;;0.82;;
22138;SDS011;25815;52.582;13.408;2022-08-02T13:41:53;2.80;;;0.98;;
22138;SDS011;25815;52.582;13.408;2022-08-02T13:44:20;2.75;;;1.05;;
22138;SDS011;25815;52.582;13.408;2022-08-02T13:46:46;4.10;;;1.10;;
22138;SDS011;25815;52.582;13.408;2022-08-02T13:49:12;2.33;;;1.05;;
22138;SDS011;25815;52.582;13.408;2022-08-02T13:51:38;3.33;;;1.20;;
22138;SDS011;25815;52.582;13.408;2022-08-02T13:54:04;2.47;;;1.10;;
22138;SDS011;25815;52.582;13.408;2022-08-02T13:56:30;3.92;;;1.10;;
22138;SDS011;25815;52.582;13.408;2022-08-02T13:58:56;2.58;;;1.23;;
22138;SDS011;25815;52.582;13.408;2022-08-02T14:01:25;3.30;;;1.25;;
22138;SDS011;25815;52.582;13.408;2022-08-02T14:03:51;3.28;;;1.00;;
22138;SDS011;25815;52.582;13.408;2022-08-02T14:06:19;4.30;;;1.10;;
22138;SDS011;25815;52.582;13.408;2022-08-02T14:08:44;4.60;;;1.00;;
22138;SDS011;25815;52.582;13.408;2022-08-02T14:11:10;4.47;;;0.98;;
22138;SDS011;25815;52.582;13.408;2022-08-02T14:13:36;3.40;;;1.00;;
22138;SDS011;25815;52.582;13.408;2022-08-02T14:16:02;2.28;;;0.80;;
22138;SDS011;25815;52.582;13.408;2022-08-02T14:18:28;2.65;;;1.00;;
22138;SDS011;25815;52.582;13.408;2022-08-02T14:20:54;3.75;;;1.05;;
22138;SDS011;25815;52.582;13.408;2022-08-02T14:23:20;3.50;;;1.10;;
22138;SDS011;25815;52.582;13.408;2022-08-02T14:25:46;3.47;;;1.15;;
22138;SDS011;25815;52.582;13.408;2022-08-02T14:28:12;3.22;;;1.00;;
22138;SDS011;25815;52.582;13.408;2022-08-02T14:30:38;3.05;;;1.20;;
22138;SDS011;25815;52.582;13.408;2022-08-02T14:33:04;5.03;;;1.00;;
22138;SDS011;25815;52.582;13.408;2022-08-02T14:35:30;3.92;;;1.10;;
22138;SDS011;25815;52.582;13.408;2022-08-02T14:37:56;2.90;;;1.20;;
22138;SDS011;25815;52.582;13.408;2022-08-02T14:40:22;2.47;;;0.90;;
22138;SDS011;25815;52.582;13.408;2022-08-02T14:42:48;1.42;;;1.17;;
22138;SDS011;25815;52.582;13.408;2022-08-02T14:45:16;3.42;;;1.40;;
22138;SDS011;25815;52.582;13.408;2022-08-02T14:47:42;3.30;;;1.05;;
22138;SDS011;25815;52.582;13.408;2022-08-02T14:50:08;5.13;;;1.10;;
22138;SDS011;25815;52.582;13.408;2022-08-02T14:52:35;3.17;;;1.00;;
22138;SDS011;25815;52.582;13.408;2022-08-02T14:55:01;3.35;;;1.05;;
22138;SDS011;25815;52.582;13.408;2022-08-02T14:57:28;5.38;;;1.25;;